Terminal Aerodrome Forecast
Issued by NWS Billings, MT

Current Version | Previous Version | Text Only | Print | Product List | Glossary On
Versions: 1 2 3 4 5 6 7 8 9 10 11 12 13 14 15 16 17 18 19 20 21 22 23 24
000
FTUS45 KBYZ 042325
TAFBIL
TAF
KBIL 042325Z 0500/0524 24011KT P6SM VCSH BKN050
     FM050300 29012KT P6SM -SHRASN OVC045
     FM050800 31010KT P6SM BKN070
     FM051600 29011G19KT P6SM VCSH BKN030=

USA.gov is the U.S. government's official web portal to all federal, state and local government web resources and services.